createdAt,value
2018-12-14T00:02:21.550Z,30.68
2018-12-14T00:04:49.522Z,22.98
2018-12-14T00:07:16.971Z,24.82
2018-12-14T00:09:44.424Z,27.20
2018-12-14T00:12:11.866Z,18.48
2018-12-14T00:14:39.319Z,22.17
2018-12-14T00:17:06.775Z,22.20
2018-12-14T00:19:34.227Z,25.32
2018-12-14T00:22:01.661Z,27.52
2018-12-14T00:24:29.111Z,20.92
2018-12-14T00:26:56.550Z,26.52
2018-12-14T00:29:23.995Z,20.48
2018-12-14T00:31:51.455Z,29.70
2018-12-14T00:34:18.905Z,23.25
2018-12-14T00:36:46.359Z,23.18
2018-12-14T00:39:13.814Z,25.50
2018-12-14T00:41:41.270Z,23.05
2018-12-14T00:44:08.714Z,23.12
2018-12-14T00:46:38.122Z,19.73
2018-12-14T00:49:05.564Z,21.60
2018-12-14T00:51:33.013Z,24.35
2018-12-14T00:54:00.460Z,22.45
2018-12-14T00:56:27.919Z,22.98
2018-12-14T00:58:55.364Z,27.98
2018-12-14T01:01:22.811Z,25.82
2018-12-14T01:03:50.315Z,28.25
2018-12-14T01:06:17.775Z,25.90
2018-12-14T01:08:45.206Z,24.67
2018-12-14T01:11:13.243Z,27.40
2018-12-14T01:13:40.692Z,23.40
2018-12-14T01:16:08.268Z,25.82
2018-12-14T01:18:35.727Z,26.95
2018-12-14T01:21:03.167Z,27.55
2018-12-14T01:23:30.619Z,26.52
2018-12-14T01:25:58.068Z,31.50
2018-12-14T01:28:25.510Z,28.55
2018-12-14T01:30:52.956Z,27.50
2018-12-14T01:33:20.415Z,22.70
2018-12-14T01:35:47.911Z,25.35
2018-12-14T01:38:15.367Z,22.62
2018-12-14T01:40:42.801Z,23.65
2018-12-14T01:43:10.254Z,23.65
2018-12-14T01:45:37.848Z,26.85
2018-12-14T01:48:05.265Z,24.12
2018-12-14T01:50:32.763Z,22.93
2018-12-14T01:53:00.215Z,22.07
2018-12-14T01:55:27.735Z,23.15
2018-12-14T01:57:55.214Z,31.50
2018-12-14T02:00:22.676Z,26.10
2018-12-14T02:02:50.133Z,21.48
2018-12-14T02:05:17.596Z,25.35
2018-12-14T02:07:45.038Z,27.62
2018-12-14T02:10:12.557Z,27.22
2018-12-14T02:12:40.173Z,23.10
2018-12-14T02:15:07.623Z,30.52
2018-12-14T02:17:35.073Z,30.08
2018-12-14T02:20:02.583Z,21.73
2018-12-14T02:22:30.023Z,29.23
2018-12-14T02:24:57.482Z,27.80
2018-12-14T02:27:24.918Z,23.15
2018-12-14T02:29:52.376Z,26.37
2018-12-14T02:32:19.815Z,22.45
2018-12-14T02:34:47.352Z,26.60
2018-12-14T02:37:14.839Z,29.48
2018-12-14T02:39:42.298Z,26.23
2018-12-14T02:42:09.742Z,26.90
2018-12-14T02:44:37.189Z,23.45
2018-12-14T02:47:04.641Z,22.87
2018-12-14T02:49:32.089Z,23.42
2018-12-14T02:51:59.548Z,26.02
2018-12-14T02:54:27.005Z,27.37
2018-12-14T02:56:54.467Z,29.30
2018-12-14T02:59:22.328Z,21.45
2018-12-14T03:01:49.859Z,21.00
2018-12-14T03:04:17.731Z,26.65
2018-12-14T03:06:45.182Z,26.60
2018-12-14T03:09:12.636Z,24.47
2018-12-14T03:11:40.091Z,25.85
2018-12-14T03:14:07.527Z,26.02
2018-12-14T03:16:35.009Z,25.50
2018-12-14T03:19:02.453Z,21.93
2018-12-14T03:21:29.894Z,26.20
2018-12-14T03:23:57.335Z,21.35
2018-12-14T03:26:24.770Z,27.13
2018-12-14T03:28:52.230Z,31.42
2018-12-14T03:31:19.668Z,29.60
2018-12-14T03:33:47.132Z,27.25
2018-12-14T03:36:14.558Z,26.15
2018-12-14T03:38:42.028Z,27.82
2018-12-14T03:41:09.470Z,27.25
2018-12-14T03:43:36.931Z,27.65
2018-12-14T03:46:04.388Z,25.85
2018-12-14T03:48:31.852Z,25.43
2018-12-14T03:50:59.339Z,22.30
2018-12-14T03:53:26.800Z,23.18
2018-12-14T03:55:54.338Z,19.02
2018-12-14T03:58:21.867Z,22.00
2018-12-14T04:00:49.482Z,23.07
2018-12-14T04:03:16.932Z,19.05
2018-12-14T04:05:44.374Z,19.73
2018-12-14T04:08:11.813Z,15.85
2018-12-14T04:10:39.363Z,16.30
2018-12-14T04:13:06.805Z,14.78
2018-12-14T04:15:34.249Z,16.27
2018-12-14T04:18:01.686Z,13.20
2018-12-14T04:20:29.183Z,13.50
2018-12-14T04:22:56.623Z,13.38
2018-12-14T04:25:24.070Z,12.68
2018-12-14T04:27:51.516Z,11.73
2018-12-14T04:30:19.064Z,14.68
2018-12-14T04:32:46.523Z,13.10
2018-12-14T04:35:13.990Z,19.17
2018-12-14T04:37:41.424Z,12.47
2018-12-14T04:40:08.972Z,15.32
2018-12-14T04:42:36.682Z,11.08
2018-12-14T04:45:04.949Z,14.50
2018-12-14T04:47:32.510Z,13.65
2018-12-14T04:49:59.955Z,10.35
2018-12-14T04:52:27.406Z,12.73
2018-12-14T04:54:54.892Z,14.28
2018-12-14T04:57:22.339Z,12.78
2018-12-14T04:59:50.132Z,11.35
2018-12-14T05:02:17.632Z,12.37
2018-12-14T05:04:45.060Z,13.53
2018-12-14T05:07:12.511Z,13.40
2018-12-14T05:09:40.092Z,11.10
2018-12-14T05:12:07.547Z,10.35
2018-12-14T05:14:34.982Z,13.43
2018-12-14T05:17:02.436Z,13.38
2018-12-14T05:19:29.881Z,12.18
2018-12-14T05:21:57.508Z,12.23
2018-12-14T05:24:24.937Z,11.93
2018-12-14T05:26:54.496Z,12.70
2018-12-14T05:29:25.686Z,10.05
2018-12-14T05:31:54.398Z,9.58
2018-12-14T05:34:24.733Z,8.85
2018-12-14T05:36:55.910Z,13.85
2018-12-14T05:39:27.938Z,14.87
2018-12-14T05:41:55.382Z,19.12
2018-12-14T05:44:22.819Z,14.90
2018-12-14T05:46:50.259Z,13.78
2018-12-14T05:49:17.789Z,14.80
2018-12-14T05:51:45.224Z,12.00
2018-12-14T05:54:12.666Z,12.70
2018-12-14T05:56:40.107Z,13.15
2018-12-14T05:59:07.578Z,11.57
2018-12-14T06:01:35.148Z,15.93
2018-12-14T06:04:02.671Z,12.28
2018-12-14T06:06:30.114Z,14.53
2018-12-14T06:08:57.726Z,12.40
2018-12-14T06:11:31.756Z,13.75
2018-12-14T06:14:05.547Z,10.45
2018-12-14T06:16:32.966Z,13.30
2018-12-14T06:19:00.418Z,12.47
2018-12-14T06:21:27.859Z,13.17
2018-12-14T06:23:55.307Z,14.90
2018-12-14T06:26:22.755Z,17.55
2018-12-14T06:28:50.210Z,15.00
2018-12-14T06:31:17.652Z,20.15
2018-12-14T06:33:45.111Z,12.65
2018-12-14T06:36:12.550Z,18.62
2018-12-14T06:38:39.987Z,13.95
2018-12-14T06:41:07.860Z,17.98
2018-12-14T06:43:35.299Z,13.68
2018-12-14T06:46:02.750Z,12.20
2018-12-14T06:48:30.217Z,14.83
2018-12-14T06:50:58.032Z,15.75
2018-12-14T06:53:25.532Z,17.35
2018-12-14T06:55:53.015Z,18.92
2018-12-14T06:58:21.153Z,15.05
2018-12-14T07:00:48.603Z,17.80
2018-12-14T07:03:16.041Z,19.95
2018-12-14T07:05:43.489Z,16.50
2018-12-14T07:08:10.935Z,13.70
2018-12-14T07:10:38.370Z,16.17
2018-12-14T07:13:05.827Z,13.70
2018-12-14T07:15:33.276Z,19.62
2018-12-14T07:18:00.735Z,18.12
2018-12-14T07:20:28.238Z,19.65
2018-12-14T07:22:56.111Z,26.97
2018-12-14T07:25:23.541Z,11.60
2018-12-14T07:27:50.986Z,15.25
2018-12-14T07:30:18.423Z,16.73
2018-12-14T07:32:45.876Z,16.45
2018-12-14T07:35:13.323Z,18.70
2018-12-14T07:37:40.775Z,13.28
2018-12-14T07:40:08.232Z,16.48
2018-12-14T07:42:35.681Z,18.32
2018-12-14T07:45:04.058Z,18.30
2018-12-14T07:47:31.539Z,25.32
2018-12-14T07:49:58.999Z,26.70
2018-12-14T07:52:26.442Z,26.62
2018-12-14T07:54:53.914Z,29.12
2018-12-14T07:57:21.355Z,17.60
2018-12-14T07:59:48.815Z,26.25
2018-12-14T08:02:16.255Z,19.10
2018-12-14T08:04:43.862Z,16.00
2018-12-14T08:07:12.083Z,18.05
2018-12-14T08:09:39.534Z,25.27
2018-12-14T08:12:07.064Z,20.10
2018-12-14T08:14:34.519Z,22.17
2018-12-14T08:17:01.967Z,21.82
2018-12-14T08:19:29.833Z,16.60
2018-12-14T08:21:57.826Z,18.27
2018-12-14T08:24:25.280Z,25.10
2018-12-14T08:26:52.727Z,17.32
2018-12-14T08:29:20.179Z,19.92
2018-12-14T08:31:47.631Z,18.87
2018-12-14T08:34:15.394Z,19.70
2018-12-14T08:36:42.873Z,21.48
2018-12-14T08:39:10.315Z,15.23
2018-12-14T08:41:38.027Z,16.62
2018-12-14T08:44:05.712Z,20.00
2018-12-14T08:46:33.160Z,23.57
2018-12-14T08:49:00.600Z,15.05
2018-12-14T08:51:28.071Z,16.00
2018-12-14T08:53:55.514Z,20.90
2018-12-14T08:56:23.702Z,19.92
2018-12-14T08:58:51.149Z,14.93
2018-12-14T09:01:18.599Z,17.15
2018-12-14T09:03:46.092Z,24.60
2018-12-14T09:06:13.539Z,24.43
2018-12-14T09:08:42.682Z,22.05
2018-12-14T09:11:10.563Z,24.32
2018-12-14T09:13:38.134Z,20.85
2018-12-14T09:16:05.576Z,19.37
2018-12-14T09:18:33.430Z,18.23
2018-12-14T09:21:01.272Z,22.67
2018-12-14T09:23:28.911Z,18.70
2018-12-14T09:25:56.482Z,21.33
2018-12-14T09:28:23.954Z,21.33
2018-12-14T09:30:51.389Z,21.42
2018-12-14T09:33:18.830Z,20.25
2018-12-14T09:35:46.279Z,26.73
2018-12-14T09:38:14.003Z,20.35
2018-12-14T09:40:41.444Z,23.75
2018-12-14T09:43:08.925Z,25.43
2018-12-14T09:45:36.373Z,52.03
2018-12-14T09:48:03.831Z,36.95
2018-12-14T09:50:31.995Z,45.98
2018-12-14T09:52:59.430Z,25.75
2018-12-14T09:55:26.990Z,24.80
2018-12-14T09:57:54.426Z,48.75
2018-12-14T10:00:21.883Z,29.70
2018-12-14T10:02:49.324Z,26.33
2018-12-14T10:05:16.767Z,26.07
2018-12-14T10:07:47.039Z,21.62
2018-12-14T10:10:13.770Z,21.10
2018-12-14T10:12:41.223Z,23.75
2018-12-14T10:15:08.803Z,20.62
2018-12-14T10:17:36.254Z,22.55
2018-12-14T10:20:06.326Z,23.05
2018-12-14T10:22:33.778Z,19.52
2018-12-14T10:25:01.216Z,18.05
2018-12-14T10:27:28.778Z,24.15
2018-12-14T10:29:56.263Z,22.93
2018-12-14T10:32:23.743Z,19.20
2018-12-14T10:34:51.206Z,24.43
2018-12-14T10:37:18.674Z,20.72
2018-12-14T10:39:46.114Z,22.65
2018-12-14T10:42:13.699Z,17.95
2018-12-14T10:44:41.144Z,16.95
2018-12-14T10:47:08.614Z,21.85
2018-12-14T10:49:36.053Z,19.95
2018-12-14T10:52:03.526Z,23.32
2018-12-14T10:54:31.128Z,22.90
2018-12-14T10:56:59.011Z,23.55
2018-12-14T10:59:26.456Z,24.18
2018-12-14T11:01:56.262Z,18.70
2018-12-14T11:04:25.542Z,24.70
2018-12-14T11:06:53.627Z,21.85
2018-12-14T11:09:21.130Z,21.37
2018-12-14T11:11:48.591Z,25.70
2018-12-14T11:14:16.766Z,26.37
2018-12-14T11:16:44.198Z,22.85
2018-12-14T11:19:11.710Z,20.15
2018-12-14T11:21:39.215Z,21.30
2018-12-14T11:24:06.667Z,18.70
2018-12-14T11:26:34.773Z,24.75
2018-12-14T11:29:02.215Z,25.08
2018-12-14T11:31:29.650Z,22.70
2018-12-14T11:33:57.154Z,22.02
2018-12-14T11:36:24.608Z,21.07
2018-12-14T11:38:52.062Z,19.52
2018-12-14T11:41:19.504Z,19.27
2018-12-14T11:43:46.950Z,20.77
2018-12-14T11:46:14.460Z,22.02
2018-12-14T11:48:41.899Z,19.87
2018-12-14T11:51:10.467Z,19.05
2018-12-14T11:53:37.913Z,22.37
2018-12-14T11:56:05.367Z,24.12
2018-12-14T11:58:32.820Z,22.27
2018-12-14T12:01:00.271Z,24.12
2018-12-14T12:03:27.707Z,22.02
2018-12-14T12:05:55.158Z,19.10
2018-12-14T12:08:22.663Z,23.87
2018-12-14T12:10:50.120Z,21.05
2018-12-14T12:13:17.547Z,18.32
2018-12-14T12:15:44.995Z,19.02
2018-12-14T12:18:12.443Z,25.62
2018-12-14T12:20:39.877Z,20.40
2018-12-14T12:23:07.336Z,16.07
2018-12-14T12:25:34.779Z,17.40
2018-12-14T12:28:02.226Z,17.90
2018-12-14T12:30:29.667Z,20.85
2018-12-14T12:32:57.123Z,16.05
2018-12-14T12:35:24.572Z,19.65
2018-12-14T12:37:52.023Z,14.18
2018-12-14T12:40:19.454Z,22.60
2018-12-14T12:42:46.904Z,23.07
2018-12-14T12:45:14.344Z,20.08
2018-12-14T12:47:41.815Z,18.05
2018-12-14T12:50:09.263Z,22.00
2018-12-14T12:52:36.703Z,19.15
2018-12-14T12:55:04.547Z,20.32
2018-12-14T12:57:32.075Z,17.57
2018-12-14T12:59:59.528Z,18.75
2018-12-14T13:02:26.965Z,19.80
2018-12-14T13:04:55.492Z,24.92
2018-12-14T13:07:23.001Z,32.13
2018-12-14T13:09:50.462Z,20.30
2018-12-14T13:12:17.926Z,19.15
2018-12-14T13:14:45.377Z,20.45
2018-12-14T13:17:12.887Z,17.90
2018-12-14T13:19:40.348Z,17.85
2018-12-14T13:22:07.831Z,22.55
2018-12-14T13:24:35.289Z,21.10
2018-12-14T13:27:03.041Z,21.55
2018-12-14T13:29:32.808Z,23.87
2018-12-14T13:32:00.546Z,17.48
2018-12-14T13:34:27.987Z,22.35
2018-12-14T13:36:55.438Z,16.60
2018-12-14T13:39:22.906Z,19.40
2018-12-14T13:41:50.467Z,17.40
2018-12-14T13:44:18.168Z,33.15
2018-12-14T13:46:45.618Z,16.05
2018-12-14T13:49:13.146Z,22.10
2018-12-14T13:51:40.821Z,17.30
2018-12-14T13:54:08.267Z,14.60
2018-12-14T13:56:35.723Z,15.25
2018-12-14T13:59:03.163Z,15.43
2018-12-14T14:01:30.650Z,16.30
2018-12-14T14:03:58.083Z,18.62
2018-12-14T14:06:25.517Z,18.57
2018-12-14T14:08:52.977Z,16.30
2018-12-14T14:11:20.477Z,20.43
2018-12-14T14:13:47.910Z,17.40
2018-12-14T14:16:15.344Z,16.48
2018-12-14T14:18:42.790Z,19.12
2018-12-14T14:21:10.244Z,17.70
2018-12-14T14:23:37.686Z,12.63
2018-12-14T14:26:05.839Z,15.05
2018-12-14T14:28:33.299Z,12.45
2018-12-14T14:31:00.732Z,16.77
2018-12-14T14:33:28.187Z,17.30
2018-12-14T14:35:55.627Z,14.58
2018-12-14T14:38:23.061Z,19.17
2018-12-14T14:40:50.514Z,27.73
2018-12-14T14:43:17.946Z,26.12
2018-12-14T14:45:45.478Z,16.90
2018-12-14T14:48:12.906Z,18.70
2018-12-14T14:50:40.352Z,16.35
2018-12-14T14:53:07.784Z,20.12
2018-12-14T14:55:35.242Z,20.80
2018-12-14T14:58:02.740Z,19.20
2018-12-14T15:00:31.758Z,22.10
2018-12-14T15:02:59.361Z,26.77
2018-12-14T15:05:26.831Z,21.30
2018-12-14T15:07:54.267Z,23.25
2018-12-14T15:10:21.747Z,20.95
2018-12-14T15:12:49.175Z,19.05
2018-12-14T15:15:16.644Z,15.88
2018-12-14T15:17:44.099Z,20.15
2018-12-14T15:20:11.601Z,22.95
2018-12-14T15:22:39.046Z,19.32
2018-12-14T15:25:06.563Z,24.12
2018-12-14T15:27:34.288Z,24.82
2018-12-14T15:30:01.721Z,21.80
2018-12-14T15:32:29.329Z,20.92
2018-12-14T15:34:59.261Z,19.40
2018-12-14T15:37:26.907Z,23.55
2018-12-14T15:39:54.406Z,18.32
2018-12-14T15:42:21.865Z,23.85
2018-12-14T15:44:49.351Z,21.60
2018-12-14T15:47:16.805Z,19.48
2018-12-14T15:49:44.290Z,18.48
2018-12-14T15:52:11.713Z,20.80
2018-12-14T15:54:39.462Z,18.82
2018-12-14T15:57:08.906Z,18.37
2018-12-14T15:59:36.357Z,26.97
2018-12-14T16:02:03.959Z,22.58
2018-12-14T16:04:31.479Z,20.45
2018-12-14T16:06:58.910Z,24.40
2018-12-14T16:09:26.422Z,22.17
2018-12-14T16:11:53.867Z,24.37
2018-12-14T16:14:21.331Z,21.93
2018-12-14T16:16:48.859Z,23.15
2018-12-14T16:19:16.602Z,19.57
2018-12-14T16:21:44.064Z,21.82
2018-12-14T16:24:11.619Z,22.25
2018-12-14T16:26:39.059Z,21.27
2018-12-14T16:29:06.569Z,20.32
2018-12-14T16:31:34.046Z,25.80
2018-12-14T16:34:01.765Z,23.57
2018-12-14T16:36:30.411Z,32.48
2018-12-14T16:38:57.871Z,27.20
2018-12-14T16:41:25.597Z,28.98
2018-12-14T16:43:53.047Z,26.55
2018-12-14T16:46:20.635Z,26.85
2018-12-14T16:48:48.263Z,32.50
2018-12-14T16:51:17.307Z,23.42
2018-12-14T16:53:52.257Z,26.52
2018-12-14T16:56:35.876Z,21.85
2018-12-14T16:59:03.413Z,21.80
2018-12-14T17:01:31.166Z,25.05
2018-12-14T17:03:58.698Z,21.27
2018-12-14T17:06:26.168Z,24.82
2018-12-14T17:08:53.740Z,29.65
2018-12-14T17:11:21.223Z,23.57
2018-12-14T17:13:49.640Z,22.58
2018-12-14T17:16:17.143Z,24.80
2018-12-14T17:18:44.589Z,25.32
2018-12-14T17:21:12.523Z,24.00
2018-12-14T17:23:40.358Z,23.07
2018-12-14T17:26:07.839Z,26.85
2018-12-14T17:28:35.546Z,21.55
2018-12-14T17:31:03.003Z,27.80
2018-12-14T17:33:35.926Z,25.85
2018-12-14T17:36:00.282Z,22.52
2018-12-14T17:38:28.252Z,22.75
2018-12-14T17:40:55.864Z,21.77
2018-12-14T17:43:23.339Z,22.73
2018-12-14T17:45:51.092Z,20.43
2018-12-14T17:48:18.570Z,23.38
2018-12-14T17:50:46.092Z,18.12
2018-12-14T17:53:13.666Z,17.15
2018-12-14T17:55:41.204Z,22.10
2018-12-14T17:58:08.655Z,18.87
2018-12-14T18:00:36.091Z,19.92
2018-12-14T18:03:03.548Z,18.80
2018-12-14T18:05:31.015Z,18.07
2018-12-14T18:07:58.522Z,21.73
2018-12-14T18:10:25.972Z,22.27
2018-12-14T18:12:53.418Z,23.07
2018-12-14T18:15:21.001Z,24.07
2018-12-14T18:17:48.442Z,17.40
2018-12-14T18:20:15.894Z,21.62
2018-12-14T18:22:43.516Z,24.87
2018-12-14T18:25:11.239Z,30.25
2018-12-14T18:27:38.782Z,27.55
2018-12-14T18:30:06.758Z,29.92
2018-12-14T18:32:34.218Z,28.15
2018-12-14T18:35:01.661Z,29.20
2018-12-14T18:37:29.118Z,21.45
2018-12-14T18:39:56.566Z,34.40
2018-12-14T18:42:24.010Z,44.70
2018-12-14T18:44:51.455Z,44.38
2018-12-14T18:47:18.912Z,26.35
2018-12-14T18:49:46.355Z,26.93
2018-12-14T18:52:13.825Z,26.37
2018-12-14T18:54:41.280Z,21.95
2018-12-14T18:57:08.719Z,27.98
2018-12-14T18:59:36.180Z,24.70
2018-12-14T19:02:03.747Z,25.75
2018-12-14T19:04:31.199Z,20.30
2018-12-14T19:06:58.816Z,22.05
2018-12-14T19:09:26.438Z,21.85
2018-12-14T19:11:54.107Z,17.55
2018-12-14T19:14:21.739Z,17.90
2018-12-14T19:16:49.166Z,18.48
2018-12-14T19:19:16.645Z,23.95
2018-12-14T19:21:44.102Z,18.15
2018-12-14T19:24:11.576Z,19.02
2018-12-14T19:26:39.885Z,16.95
2018-12-14T19:29:07.355Z,22.25
2018-12-14T19:31:34.866Z,18.57
2018-12-14T19:34:02.312Z,16.55
2018-12-14T19:36:29.769Z,20.37
2018-12-14T19:38:57.365Z,15.72
2018-12-14T19:41:25.893Z,17.35
2018-12-14T19:43:53.352Z,18.27
2018-12-14T19:46:20.811Z,24.25
2018-12-14T19:48:48.273Z,21.85
2018-12-14T19:51:15.719Z,26.70
2018-12-14T19:53:43.170Z,30.55
2018-12-14T19:56:10.699Z,26.70
2018-12-14T19:58:38.143Z,20.32
2018-12-14T20:01:05.653Z,20.88
2018-12-14T20:03:33.195Z,19.05
2018-12-14T20:06:00.651Z,24.47
2018-12-14T20:08:28.107Z,18.60
2018-12-14T20:10:55.542Z,19.50
2018-12-14T20:13:23.072Z,18.05
2018-12-14T20:15:57.156Z,17.95
2018-12-14T20:18:20.008Z,17.25
2018-12-14T20:20:47.448Z,14.35
2018-12-14T20:23:14.898Z,27.17
2018-12-14T20:25:42.345Z,18.95
2018-12-14T20:28:09.794Z,13.00
2018-12-14T20:30:37.242Z,14.18
2018-12-14T20:33:04.778Z,13.50
2018-12-14T20:35:32.398Z,14.73
2018-12-14T20:38:00.015Z,14.35
2018-12-14T20:40:27.489Z,13.55
2018-12-14T20:42:54.921Z,15.58
2018-12-14T20:45:22.371Z,15.40
2018-12-14T20:47:49.828Z,21.42
2018-12-14T20:50:17.266Z,20.15
2018-12-14T20:52:45.243Z,19.27
2018-12-14T20:55:12.705Z,17.15
2018-12-14T20:57:40.157Z,17.92
2018-12-14T21:00:08.450Z,20.37
2018-12-14T21:02:35.910Z,17.73
2018-12-14T21:05:04.004Z,20.00
2018-12-14T21:07:31.467Z,19.60
2018-12-14T21:09:59.962Z,18.27
2018-12-14T21:12:27.457Z,18.50
2018-12-14T21:14:57.830Z,18.95
2018-12-14T21:17:25.557Z,20.32
2018-12-14T21:19:55.458Z,19.02
2018-12-14T21:22:22.959Z,19.35
2018-12-14T21:24:50.393Z,19.73
2018-12-14T21:29:51.374Z,18.23
2018-12-14T21:32:20.727Z,19.70
2018-12-14T21:34:48.201Z,20.20
2018-12-14T21:37:17.340Z,22.07
2018-12-14T21:39:45.769Z,17.17
2018-12-14T21:42:13.227Z,16.57
2018-12-14T21:44:40.999Z,18.23
2018-12-14T21:47:08.528Z,17.45
2018-12-14T21:49:36.032Z,21.30
2018-12-14T21:52:03.474Z,20.77
2018-12-14T21:54:30.941Z,21.85
2018-12-14T21:56:58.495Z,19.35
2018-12-14T21:59:25.946Z,17.55
2018-12-14T22:01:53.422Z,18.75
2018-12-14T22:04:20.875Z,17.70
2018-12-14T22:06:48.310Z,19.85
2018-12-14T22:09:15.987Z,22.87
2018-12-14T22:11:43.436Z,18.98
2018-12-14T22:14:11.039Z,20.68
2018-12-14T22:16:39.274Z,15.48
2018-12-14T22:19:07.063Z,15.72
2018-12-14T22:21:34.867Z,16.42
2018-12-14T22:24:02.333Z,17.80
2018-12-14T22:26:29.754Z,16.93
2018-12-14T22:28:57.202Z,17.45
2018-12-14T22:31:24.660Z,18.57
2018-12-14T22:33:52.116Z,22.10
2018-12-14T22:36:19.645Z,16.73
2018-12-14T22:38:47.074Z,15.53
2018-12-14T22:41:14.535Z,25.40
2018-12-14T22:43:42.079Z,18.30
2018-12-14T22:46:09.536Z,20.60
2018-12-14T22:48:36.986Z,19.12
2018-12-14T22:51:04.446Z,17.73
2018-12-14T22:53:31.887Z,23.40
2018-12-14T22:55:59.339Z,18.32
2018-12-14T22:58:26.787Z,17.77
2018-12-14T23:00:54.290Z,18.30
2018-12-14T23:03:21.741Z,17.85
2018-12-14T23:05:49.630Z,19.30
2018-12-14T23:08:17.065Z,19.10
2018-12-14T23:10:44.508Z,16.42
2018-12-14T23:13:11.967Z,20.15
2018-12-14T23:15:39.418Z,17.00
2018-12-14T23:18:06.878Z,18.98
2018-12-14T23:20:34.318Z,21.48
2018-12-14T23:23:01.771Z,15.68
2018-12-14T23:25:29.222Z,16.85
2018-12-14T23:27:56.678Z,17.32
2018-12-14T23:30:24.578Z,18.15
2018-12-14T23:32:52.642Z,15.03
2018-12-14T23:35:20.278Z,16.20
2018-12-14T23:37:47.750Z,16.70
2018-12-14T23:40:15.198Z,19.12
2018-12-14T23:42:42.630Z,17.87
2018-12-14T23:45:10.300Z,17.57
2018-12-14T23:47:39.014Z,16.05
2018-12-14T23:50:08.735Z,20.25
2018-12-14T23:52:38.349Z,16.93
2018-12-14T23:55:06.293Z,16.20
